Time;durP1;ratioP1;P1;durP2;ratioP2;P2;SDS_P1;SDS_P2;PMS_P1;PMS_P2;Temp;Humidity;BMP_temperature;BMP_pressure;BME280_temperature;BME280_humidity;BME280_pressure;Samples;Min_cycle;Max_cycle;Signal;HPM_P1;HPM_P2
2022/03/16 00:01:32;;;;;;;19.17;6.20;;;;;;;;;;5070807;28;20370;-72
2022/03/16 00:03:59;;;;;;;17.52;6.30;;;;;;;;;;5070729;28;20492;-72
2022/03/16 00:06:25;;;;;;;20.25;6.82;;;;;;;;;;5070606;28;20515;-72
2022/03/16 00:08:52;;;;;;;19.17;5.63;;;;;;;;;;5071565;28;20016;-72
2022/03/16 00:11:18;;;;;;;20.77;6.35;;;;;;;;;;5070855;28;20039;-72
2022/03/16 00:13:44;;;;;;;22.08;6.68;;;;;;;;;;5057102;28;20030;-72
2022/03/16 00:16:11;;;;;;;19.73;6.05;;;;;;;;;;5055393;28;20029;-72
2022/03/16 00:18:37;;;;;;;19.10;6.10;;;;;;;;;;5070801;28;20020;-72
2022/03/16 00:21:04;;;;;;;23.77;6.13;;;;;;;;;;5070967;28;20031;-72
2022/03/16 00:23:30;;;;;;;17.13;6.15;;;;;;;;;;5057862;28;20039;-72
2022/03/16 00:25:57;;;;;;;13.02;6.40;;;;;;;;;;5065094;28;20028;-72
2022/03/16 00:28:23;;;;;;;19.52;6.32;;;;;;;;;;5070900;28;20048;-72
2022/03/16 00:30:49;;;;;;;21.88;7.22;;;;;;;;;;5070649;28;20031;-72
2022/03/16 00:33:15;;;;;;;21.05;7.43;;;;;;;;;;5070732;28;20015;-72
2022/03/16 00:35:42;;;;;;;17.35;6.63;;;;;;;;;;5070988;28;20037;-72
2022/03/16 00:38:09;;;;;;;22.08;5.85;;;;;;;;;;5073254;28;20051;-71
2022/03/16 00:40:36;;;;;;;20.75;6.13;;;;;;;;;;5074181;28;20021;-72
2022/03/16 00:43:03;;;;;;;14.10;6.15;;;;;;;;;;5074365;28;20090;-72
2022/03/16 00:45:29;;;;;;;18.50;5.80;;;;;;;;;;5058473;28;20024;-72
2022/03/16 00:47:55;;;;;;;19.90;6.00;;;;;;;;;;5074858;28;20020;-72
2022/03/16 00:50:22;;;;;;;20.92;6.28;;;;;;;;;;5073919;28;20024;-71
2022/03/16 00:52:48;;;;;;;22.73;6.28;;;;;;;;;;5074475;28;20108;-72
2022/03/16 00:55:14;;;;;;;20.20;5.75;;;;;;;;;;5074159;28;20392;-73
2022/03/16 00:57:41;;;;;;;21.60;6.45;;;;;;;;;;5074013;28;20024;-72
2022/03/16 01:00:08;;;;;;;23.90;5.95;;;;;;;;;;5074113;28;20381;-72
2022/03/16 01:02:34;;;;;;;19.13;5.70;;;;;;;;;;5074859;28;20029;-72
2022/03/16 01:05:00;;;;;;;21.17;6.43;;;;;;;;;;5073517;28;20420;-72
2022/03/16 01:07:27;;;;;;;21.50;5.60;;;;;;;;;;5074181;28;20027;-72
2022/03/16 01:09:53;;;;;;;14.75;5.55;;;;;;;;;;5073947;28;20031;-72
2022/03/16 01:12:20;;;;;;;20.73;6.00;;;;;;;;;;5074033;28;20025;-72
2022/03/16 01:14:47;;;;;;;15.52;5.85;;;;;;;;;;5074408;28;20036;-72
2022/03/16 01:17:13;;;;;;;16.38;5.70;;;;;;;;;;5073695;28;20400;-72
2022/03/16 01:19:40;;;;;;;19.23;6.05;;;;;;;;;;5073650;28;20050;-72
2022/03/16 01:22:06;;;;;;;17.38;6.18;;;;;;;;;;5073879;28;20020;-72
2022/03/16 01:24:33;;;;;;;21.65;5.75;;;;;;;;;;5073717;28;20016;-72
2022/03/16 01:26:59;;;;;;;15.75;5.78;;;;;;;;;;5074386;28;20077;-72
2022/03/16 01:29:26;;;;;;;19.23;5.85;;;;;;;;;;5073682;28;20024;-72
2022/03/16 01:31:53;;;;;;;19.30;6.13;;;;;;;;;;5073531;28;20032;-72
2022/03/16 01:34:20;;;;;;;22.92;5.90;;;;;;;;;;5073057;28;20026;-73
2022/03/16 01:36:46;;;;;;;17.80;5.85;;;;;;;;;;5073190;28;20017;-72
2022/03/16 01:39:13;;;;;;;15.77;5.53;;;;;;;;;;5073440;28;20030;-72
2022/03/16 01:41:39;;;;;;;14.48;6.30;;;;;;;;;;5073839;28;20024;-72
2022/03/16 01:44:06;;;;;;;13.98;5.32;;;;;;;;;;5073121;28;20016;-72
2022/03/16 01:46:32;;;;;;;14.65;6.10;;;;;;;;;;5073164;28;20034;-72
2022/03/16 01:48:58;;;;;;;15.90;6.80;;;;;;;;;;5072819;28;20030;-72
2022/03/16 01:51:25;;;;;;;16.60;5.47;;;;;;;;;;5073018;28;20041;-72
2022/03/16 01:53:51;;;;;;;16.08;6.32;;;;;;;;;;5073836;28;20516;-72
2022/03/16 01:56:18;;;;;;;13.23;5.43;;;;;;;;;;5073177;28;20032;-72
2022/03/16 01:58:44;;;;;;;16.45;5.60;;;;;;;;;;5072903;28;20440;-72
2022/03/16 02:01:11;;;;;;;15.27;5.40;;;;;;;;;;5072746;28;20027;-72
2022/03/16 02:03:37;;;;;;;18.27;6.03;;;;;;;;;;5072577;28;20497;-72
2022/03/16 02:06:04;;;;;;;16.77;5.90;;;;;;;;;;5073154;28;20017;-72
2022/03/16 02:08:31;;;;;;;19.70;6.50;;;;;;;;;;5073533;28;20024;-72
2022/03/16 02:10:57;;;;;;;15.63;5.78;;;;;;;;;;5072518;28;20037;-72
2022/03/16 02:13:24;;;;;;;14.57;5.95;;;;;;;;;;5058555;28;20029;-72
2022/03/16 02:15:51;;;;;;;18.73;5.60;;;;;;;;;;5072507;28;20028;-72
2022/03/16 02:18:17;;;;;;;13.75;5.80;;;;;;;;;;5072262;28;20035;-72
2022/03/16 02:20:45;;;;;;;17.75;6.40;;;;;;;;;;5073242;28;20038;-72
2022/03/16 02:23:12;;;;;;;14.75;5.90;;;;;;;;;;5072496;28;20020;-72
2022/03/16 02:25:52;;;;;;;18.02;6.25;;;;;;;;;;5072448;28;20485;-72
2022/03/16 02:28:19;;;;;;;13.43;5.95;;;;;;;;;;5072325;28;20507;-72
2022/03/16 02:30:45;;;;;;;13.48;5.88;;;;;;;;;;5071983;28;20046;-72
2022/03/16 02:33:11;;;;;;;17.98;5.68;;;;;;;;;;5072282;28;20024;-72
2022/03/16 02:35:38;;;;;;;16.38;5.97;;;;;;;;;;5072735;28;20029;-72
2022/03/16 02:38:05;;;;;;;16.83;6.15;;;;;;;;;;5071804;28;20037;-72
2022/03/16 02:40:32;;;;;;;21.42;6.63;;;;;;;;;;5071987;28;20439;-72
2022/03/16 02:42:58;;;;;;;15.07;6.35;;;;;;;;;;5072017;28;20021;-73
2022/03/16 02:45:25;;;;;;;16.27;5.85;;;;;;;;;;5072103;28;20438;-72
2022/03/16 02:47:51;;;;;;;18.00;7.18;;;;;;;;;;5058810;28;20378;-72
2022/03/16 02:50:18;;;;;;;14.98;5.95;;;;;;;;;;5058393;28;20051;-72
2022/03/16 02:52:45;;;;;;;18.13;6.20;;;;;;;;;;5058640;28;20035;-72
2022/03/16 02:55:12;;;;;;;15.70;6.13;;;;;;;;;;5072105;28;20031;-72
2022/03/16 02:57:38;;;;;;;16.35;6.38;;;;;;;;;;5072550;28;20024;-72
2022/03/16 03:00:05;;;;;;;19.52;6.13;;;;;;;;;;5071087;28;20025;-72
2022/03/16 03:02:32;;;;;;;19.40;6.18;;;;;;;;;;5071273;28;20039;-72
2022/03/16 03:04:58;;;;;;;13.38;5.97;;;;;;;;;;5071937;28;20021;-72
2022/03/16 03:07:25;;;;;;;18.23;6.63;;;;;;;;;;5071444;28;20515;-72
2022/03/16 03:09:51;;;;;;;21.98;6.25;;;;;;;;;;5071498;28;20031;-72
2022/03/16 03:12:17;;;;;;;14.18;5.60;;;;;;;;;;5071603;28;20029;-72
2022/03/16 03:14:44;;;;;;;15.07;5.90;;;;;;;;;;5071976;28;20032;-72
2022/03/16 03:17:10;;;;;;;16.85;6.43;;;;;;;;;;5071593;28;20504;-72
2022/03/16 03:19:37;;;;;;;18.17;5.95;;;;;;;;;;5071503;28;20023;-72
2022/03/16 03:22:05;;;;;;;20.38;6.30;;;;;;;;;;5071599;28;20017;-72
2022/03/16 03:24:32;;;;;;;20.77;5.80;;;;;;;;;;5071479;28;20497;-72
2022/03/16 03:26:58;;;;;;;16.63;5.63;;;;;;;;;;5072198;28;20025;-72
2022/03/16 03:29:24;;;;;;;16.15;6.07;;;;;;;;;;5071021;28;20489;-72
2022/03/16 03:31:51;;;;;;;15.20;5.88;;;;;;;;;;5071159;28;20493;-72
2022/03/16 03:34:17;;;;;;;19.83;6.07;;;;;;;;;;5071326;28;20027;-72
2022/03/16 03:36:44;;;;;;;24.15;6.50;;;;;;;;;;5071126;28;20047;-72
2022/03/16 03:39:10;;;;;;;15.30;5.88;;;;;;;;;;5056038;28;20424;-72
2022/03/16 03:41:37;;;;;;;14.50;5.85;;;;;;;;;;5071582;28;20025;-72
2022/03/16 03:44:04;;;;;;;16.45;6.00;;;;;;;;;;5070890;28;20020;-72
2022/03/16 03:46:30;;;;;;;24.40;6.20;;;;;;;;;;5071429;28;20028;-72
2022/03/16 03:48:56;;;;;;;15.65;6.30;;;;;;;;;;5071287;28;20073;-72
2022/03/16 03:51:23;;;;;;;26.20;7.22;;;;;;;;;;5070980;28;20040;-72
2022/03/16 03:53:49;;;;;;;20.17;6.13;;;;;;;;;;5071750;28;20489;-72
2022/03/16 03:56:16;;;;;;;19.98;6.00;;;;;;;;;;5070914;28;20025;-72
2022/03/16 03:58:42;;;;;;;18.27;5.70;;;;;;;;;;5070517;28;20020;-72
2022/03/16 04:01:08;;;;;;;20.20;6.40;;;;;;;;;;5070946;28;20034;-71
2022/03/16 04:03:35;;;;;;;15.48;6.80;;;;;;;;;;5071099;28;20020;-72
2022/03/16 04:06:01;;;;;;;15.73;5.82;;;;;;;;;;5071239;28;20473;-72
2022/03/16 04:08:28;;;;;;;18.00;6.13;;;;;;;;;;5070862;28;20470;-72
2022/03/16 04:10:54;;;;;;;14.32;6.03;;;;;;;;;;5071568;28;20028;-72
2022/03/16 04:13:20;;;;;;;15.25;6.72;;;;;;;;;;5074594;28;20021;-72
2022/03/16 04:15:47;;;;;;;15.85;6.22;;;;;;;;;;5074986;28;20033;-72
2022/03/16 04:18:13;;;;;;;17.25;6.50;;;;;;;;;;5075029;28;20025;-72
2022/03/16 04:20:39;;;;;;;18.95;6.35;;;;;;;;;;5075106;28;20031;-72
2022/03/16 04:23:06;;;;;;;21.33;6.00;;;;;;;;;;5074791;28;20397;-72
2022/03/16 04:25:32;;;;;;;14.75;5.15;;;;;;;;;;5074503;28;20017;-72
2022/03/16 04:27:59;;;;;;;15.68;5.65;;;;;;;;;;5074334;28;20032;-72
2022/03/16 04:30:27;;;;;;;21.52;6.90;;;;;;;;;;5074811;28;20025;-72
2022/03/16 04:32:54;;;;;;;18.20;6.30;;;;;;;;;;5075411;28;20024;-72
2022/03/16 04:35:20;;;;;;;17.67;5.85;;;;;;;;;;5074499;28;20519;-72
2022/03/16 04:37:47;;;;;;;20.05;5.82;;;;;;;;;;5074501;28;20032;-72
2022/03/16 04:40:14;;;;;;;18.45;6.15;;;;;;;;;;5074152;28;20073;-72
2022/03/16 04:42:41;;;;;;;23.30;6.15;;;;;;;;;;5074285;28;20481;-72
2022/03/16 04:45:08;;;;;;;20.00;6.50;;;;;;;;;;5074635;28;20033;-72
2022/03/16 04:47:34;;;;;;;15.00;6.47;;;;;;;;;;5074791;28;20037;-72
2022/03/16 04:50:00;;;;;;;17.85;6.15;;;;;;;;;;5074088;28;20032;-72
2022/03/16 04:52:27;;;;;;;18.23;5.80;;;;;;;;;;5074030;28;20025;-72
2022/03/16 04:54:54;;;;;;;15.95;5.43;;;;;;;;;;5074285;28;20396;-72
2022/03/16 04:57:20;;;;;;;16.65;5.97;;;;;;;;;;5074073;28;20040;-72
2022/03/16 04:59:46;;;;;;;15.20;5.32;;;;;;;;;;5074802;28;20085;-72
2022/03/16 05:02:13;;;;;;;15.93;5.60;;;;;;;;;;5074036;28;20070;-72
2022/03/16 05:04:39;;;;;;;13.52;5.70;;;;;;;;;;5073890;28;20025;-72
2022/03/16 05:07:05;;;;;;;15.90;5.47;;;;;;;;;;5074044;28;20021;-72
2022/03/16 05:09:32;;;;;;;18.00;5.90;;;;;;;;;;5073862;28;20017;-72
2022/03/16 05:11:58;;;;;;;14.52;5.45;;;;;;;;;;5074078;28;20037;-72
2022/03/16 05:14:24;;;;;;;19.63;5.22;;;;;;;;;;5073829;28;20035;-72
2022/03/16 05:16:51;;;;;;;19.65;6.35;;;;;;;;;;5073620;28;20043;-72
2022/03/16 05:19:17;;;;;;;15.02;6.07;;;;;;;;;;5073774;28;20025;-72
2022/03/16 05:21:43;;;;;;;17.63;5.65;;;;;;;;;;5073781;28;20635;-72
2022/03/16 05:24:10;;;;;;;12.00;5.20;;;;;;;;;;5072952;28;20034;-72
2022/03/16 05:26:36;;;;;;;14.40;5.95;;;;;;;;;;5073921;28;20032;-72
2022/03/16 05:29:05;;;;;;;18.42;5.50;;;;;;;;;;5073196;28;20404;-72
2022/03/16 05:31:31;;;;;;;11.15;5.25;;;;;;;;;;5073384;28;20048;-72
2022/03/16 05:33:57;;;;;;;13.05;5.20;;;;;;;;;;5073451;28;20016;-72
2022/03/16 05:36:24;;;;;;;12.77;5.50;;;;;;;;;;5073477;28;20505;-72
2022/03/16 05:38:50;;;;;;;19.88;5.32;;;;;;;;;;5073880;28;20047;-72
2022/03/16 05:41:17;;;;;;;16.27;5.60;;;;;;;;;;5072797;28;20032;-72
2022/03/16 05:43:43;;;;;;;16.23;5.65;;;;;;;;;;5073282;28;20143;-72
2022/03/16 05:46:10;;;;;;;19.25;5.63;;;;;;;;;;5073351;28;20085;-72
2022/03/16 05:48:36;;;;;;;17.30;4.85;;;;;;;;;;5055544;28;20008;-72
2022/03/16 05:51:03;;;;;;;15.30;5.15;;;;;;;;;;5073358;28;20064;-72
2022/03/16 05:53:29;;;;;;;16.20;5.30;;;;;;;;;;5072995;28;20030;-72
2022/03/16 05:55:55;;;;;;;13.70;4.97;;;;;;;;;;5072454;28;20493;-72
2022/03/16 05:58:22;;;;;;;15.77;5.05;;;;;;;;;;5072973;28;20029;-72
2022/03/16 06:00:48;;;;;;;10.90;4.95;;;;;;;;;;5072834;28;20025;-72
2022/03/16 06:03:14;;;;;;;12.52;5.18;;;;;;;;;;5073002;28;20029;-72
2022/03/16 06:05:41;;;;;;;16.20;5.20;;;;;;;;;;5071712;28;20034;-72
2022/03/16 06:08:07;;;;;;;9.90;4.68;;;;;;;;;;5072799;28;20029;-72
2022/03/16 06:10:34;;;;;;;15.95;5.35;;;;;;;;;;5072256;28;20050;-72
2022/03/16 06:13:01;;;;;;;11.50;5.10;;;;;;;;;;5055435;28;20023;-72
2022/03/16 06:15:28;;;;;;;13.88;4.50;;;;;;;;;;5072737;28;20040;-72
2022/03/16 06:17:56;;;;;;;12.00;4.93;;;;;;;;;;5073389;28;20019;-72
2022/03/16 06:20:22;;;;;;;11.55;4.95;;;;;;;;;;5072387;28;20029;-72
2022/03/16 06:22:51;;;;;;;16.27;5.55;;;;;;;;;;5072463;28;20522;-72
2022/03/16 06:25:18;;;;;;;15.00;5.35;;;;;;;;;;5072297;28;20039;-72
2022/03/16 06:27:45;;;;;;;13.90;5.50;;;;;;;;;;5054754;28;20082;-72
2022/03/16 06:30:11;;;;;;;12.18;5.40;;;;;;;;;;5072237;28;20035;-72
2022/03/16 06:32:38;;;;;;;11.27;4.65;;;;;;;;;;5072887;28;20025;-72
2022/03/16 06:35:05;;;;;;;14.07;5.18;;;;;;;;;;5072171;28;20016;-72
2022/03/16 06:37:32;;;;;;;11.55;4.70;;;;;;;;;;5072154;28;20046;-72
2022/03/16 06:39:58;;;;;;;13.02;5.07;;;;;;;;;;5054219;28;20024;-72
2022/03/16 06:42:24;;;;;;;16.00;5.18;;;;;;;;;;5072301;28;20035;-72
2022/03/16 06:44:51;;;;;;;12.43;5.00;;;;;;;;;;5072808;28;20027;-72
2022/03/16 06:47:18;;;;;;;15.50;5.45;;;;;;;;;;5058701;28;20028;-72
2022/03/16 06:49:45;;;;;;;17.73;4.70;;;;;;;;;;5071796;28;20028;-73
2022/03/16 06:52:12;;;;;;;12.73;4.88;;;;;;;;;;5071613;28;20035;-72
2022/03/16 06:54:38;;;;;;;14.23;4.90;;;;;;;;;;5072080;28;20031;-72
2022/03/16 06:57:05;;;;;;;10.70;4.50;;;;;;;;;;5072201;28;20286;-72
2022/03/16 06:59:31;;;;;;;13.05;5.43;;;;;;;;;;5072346;28;20020;-72
2022/03/16 07:01:57;;;;;;;12.77;5.10;;;;;;;;;;5071692;28;20393;-72
2022/03/16 07:04:24;;;;;;;15.20;5.20;;;;;;;;;;5057297;28;20033;-72
2022/03/16 07:06:50;;;;;;;9.05;4.35;;;;;;;;;;5070856;28;20035;-73
2022/03/16 07:09:17;;;;;;;11.50;5.22;;;;;;;;;;5068191;28;20027;-73
2022/03/16 07:11:43;;;;;;;15.32;4.72;;;;;;;;;;5070209;28;20039;-73
2022/03/16 07:17:11;;;;;;;13.40;5.22;;;;;;;;;;5027583;28;20041;-73
2022/03/16 07:19:39;;;;;;;14.32;4.68;;;;;;;;;;5033971;28;20084;-73
2022/03/16 07:22:06;;;;;;;13.52;5.00;;;;;;;;;;5032230;28;20025;-73
2022/03/16 07:24:32;;;;;;;18.45;4.78;;;;;;;;;;5028770;28;20504;-73
2022/03/16 07:27:02;;;;;;;14.75;4.72;;;;;;;;;;5033374;28;20132;-73
2022/03/16 07:29:28;;;;;;;17.33;4.80;;;;;;;;;;5034557;28;20498;-72
2022/03/16 07:31:55;;;;;;;9.88;4.30;;;;;;;;;;5032281;28;20055;-73
2022/03/16 07:34:22;;;;;;;13.15;4.70;;;;;;;;;;5031343;28;20022;-73
2022/03/16 07:36:48;;;;;;;13.30;4.47;;;;;;;;;;5030516;28;20457;-73
2022/03/16 07:39:15;;;;;;;15.65;4.82;;;;;;;;;;5029966;28;20519;-73
2022/03/16 07:41:41;;;;;;;15.68;4.70;;;;;;;;;;5033001;28;20332;-73
2022/03/16 07:44:08;;;;;;;12.35;4.70;;;;;;;;;;5032729;28;20272;-73
2022/03/16 07:46:34;;;;;;;13.32;4.63;;;;;;;;;;5030792;28;20147;-73
2022/03/16 07:49:01;;;;;;;14.82;4.70;;;;;;;;;;5020641;28;20029;-73
2022/03/16 07:51:27;;;;;;;12.02;4.57;;;;;;;;;;5046790;28;20505;-73
2022/03/16 07:53:54;;;;;;;11.80;4.68;;;;;;;;;;5070562;28;20431;-73
2022/03/16 07:56:20;;;;;;;10.57;4.25;;;;;;;;;;5070214;28;20035;-73
2022/03/16 07:58:46;;;;;;;10.70;3.88;;;;;;;;;;5070559;28;20030;-73
2022/03/16 08:01:13;;;;;;;12.02;4.75;;;;;;;;;;5069758;28;20392;-73
2022/03/16 08:03:39;;;;;;;11.77;4.60;;;;;;;;;;5070391;28;20028;-73
2022/03/16 08:06:06;;;;;;;19.40;8.27;;;;;;;;;;5069114;28;20028;-73
2022/03/16 08:08:32;;;;;;;13.98;5.90;;;;;;;;;;5069465;28;20016;-73
2022/03/16 08:10:59;;;;;;;14.45;4.40;;;;;;;;;;5056629;28;20033;-73
2022/03/16 08:13:25;;;;;;;99.15;8.98;;;;;;;;;;5069845;28;20481;-73
2022/03/16 08:15:52;;;;;;;27.13;6.63;;;;;;;;;;5070327;28;20363;-73
2022/03/16 08:18:18;;;;;;;16.33;4.80;;;;;;;;;;5070360;28;20433;-73
2022/03/16 08:20:44;;;;;;;14.15;4.10;;;;;;;;;;5070734;28;20037;-72
2022/03/16 08:23:11;;;;;;;13.15;4.50;;;;;;;;;;5070613;28;20038;-73
2022/03/16 08:25:37;;;;;;;12.32;4.30;;;;;;;;;;5070920;28;20032;-73
2022/03/16 08:28:04;;;;;;;10.07;3.97;;;;;;;;;;5070476;28;20020;-73
2022/03/16 08:30:30;;;;;;;10.90;4.05;;;;;;;;;;5054521;28;20039;-73
2022/03/16 08:32:56;;;;;;;10.10;3.97;;;;;;;;;;5070932;28;20028;-73
2022/03/16 08:35:23;;;;;;;12.82;4.10;;;;;;;;;;5069848;28;20477;-73
2022/03/16 08:37:49;;;;;;;11.70;4.05;;;;;;;;;;5070444;28;20055;-73
2022/03/16 08:40:16;;;;;;;14.27;4.20;;;;;;;;;;5070189;28;20019;-73
2022/03/16 08:42:43;;;;;;;14.55;4.72;;;;;;;;;;5070110;28;20020;-73
2022/03/16 08:45:10;;;;;;;9.38;4.18;;;;;;;;;;5070505;28;20362;-73
2022/03/16 08:47:37;;;;;;;9.88;3.85;;;;;;;;;;5071047;28;20023;-73
2022/03/16 08:50:04;;;;;;;12.77;4.45;;;;;;;;;;5069632;28;20025;-73
2022/03/16 08:52:30;;;;;;;11.30;4.57;;;;;;;;;;5069261;28;20016;-73
2022/03/16 08:54:56;;;;;;;10.82;4.00;;;;;;;;;;5070046;28;20035;-73
2022/03/16 08:57:23;;;;;;;11.50;4.13;;;;;;;;;;5070358;28;20032;-73
2022/03/16 08:59:49;;;;;;;15.55;4.90;;;;;;;;;;5074560;28;20028;-73
2022/03/16 09:02:16;;;;;;;10.88;4.18;;;;;;;;;;5073221;28;20028;-73
2022/03/16 09:04:42;;;;;;;11.18;4.25;;;;;;;;;;5073466;28;20083;-73
2022/03/16 09:07:09;;;;;;;10.57;4.45;;;;;;;;;;5073614;28;20027;-73
2022/03/16 09:09:36;;;;;;;13.80;4.18;;;;;;;;;;5073703;28;20031;-73
2022/03/16 09:12:02;;;;;;;11.77;4.53;;;;;;;;;;5073600;28;20035;-73
2022/03/16 09:14:28;;;;;;;12.52;4.47;;;;;;;;;;5074055;28;20027;-73
2022/03/16 09:16:55;;;;;;;10.98;4.10;;;;;;;;;;5058626;28;20469;-73
2022/03/16 09:19:21;;;;;;;13.23;5.22;;;;;;;;;;5073073;28;20478;-73
2022/03/16 09:21:48;;;;;;;9.48;4.28;;;;;;;;;;5073570;28;20059;-73
2022/03/16 09:24:15;;;;;;;13.73;4.28;;;;;;;;;;5068448;28;20031;-73
2022/03/16 09:26:42;;;;;;;10.18;4.75;;;;;;;;;;5059144;28;20037;-73
2022/03/16 09:29:09;;;;;;;16.52;5.00;;;;;;;;;;5072506;28;20029;-73
2022/03/16 09:31:36;;;;;;;14.43;4.22;;;;;;;;;;5071847;28;20043;-73
2022/03/16 09:34:07;;;;;;;13.13;5.32;;;;;;;;;;5073051;28;20023;-72
2022/03/16 09:36:34;;;;;;;11.35;4.45;;;;;;;;;;5056644;28;20024;-72
2022/03/16 09:39:01;;;;;;;11.52;4.10;;;;;;;;;;5058471;28;20021;-73
2022/03/16 09:41:27;;;;;;;9.27;4.43;;;;;;;;;;5072616;28;20021;-73
2022/03/16 09:43:54;;;;;;;10.90;3.78;;;;;;;;;;5072121;28;20021;-73
2022/03/16 09:46:31;;;;;;;12.43;4.13;;;;;;;;;;5070787;28;20027;-73
2022/03/16 09:48:57;;;;;;;13.05;4.22;;;;;;;;;;5072348;28;20029;-73
2022/03/16 09:51:25;;;;;;;11.88;4.90;;;;;;;;;;5072100;28;20078;-73
2022/03/16 09:53:52;;;;;;;14.00;4.20;;;;;;;;;;5072572;28;20016;-73
2022/03/16 09:56:19;;;;;;;13.95;4.05;;;;;;;;;;5071831;28;20028;-72
2022/03/16 09:58:46;;;;;;;11.43;3.83;;;;;;;;;;5070729;28;20093;-73
2022/03/16 10:01:13;;;;;;;9.07;3.80;;;;;;;;;;5072711;28;20390;-73
2022/03/16 10:03:40;;;;;;;14.73;4.03;;;;;;;;;;5071987;28;20027;-73
2022/03/16 10:06:10;;;;;;;12.45;4.45;;;;;;;;;;5072163;28;20024;-73
2022/03/16 10:08:37;;;;;;;9.35;3.22;;;;;;;;;;5071770;28;20546;-73
2022/03/16 10:13:58;;;;;;;10.52;3.97;;;;;;;;;;5071985;28;20028;-72
2022/03/16 10:16:24;;;;;;;11.80;3.78;;;;;;;;;;5071837;28;20024;-73
2022/03/16 10:18:55;;;;;;;11.07;4.18;;;;;;;;;;5071111;28;20031;-73
2022/03/16 10:21:23;;;;;;;13.73;4.30;;;;;;;;;;5071822;28;20033;-72
2022/03/16 10:23:49;;;;;;;12.23;4.03;;;;;;;;;;5071172;28;20025;-73
2022/03/16 10:26:17;;;;;;;12.18;4.07;;;;;;;;;;5071179;28;20049;-73
2022/03/16 10:28:46;;;;;;;12.68;4.10;;;;;;;;;;5071934;28;20051;-73
2022/03/16 10:31:14;;;;;;;10.15;3.75;;;;;;;;;;5071211;28;20041;-73
2022/03/16 10:33:48;;;;;;;14.55;4.28;;;;;;;;;;5072116;28;20020;-73
2022/03/16 10:36:16;;;;;;;15.25;4.60;;;;;;;;;;5055491;28;20025;-73
2022/03/16 10:38:58;;;;;;;12.77;3.67;;;;;;;;;;5062087;28;20050;-73
2022/03/16 10:47:02;;;;;;;14.25;4.70;;;;;;;;;;5071000;28;20345;-73
2022/03/16 10:49:30;;;;;;;12.63;4.40;;;;;;;;;;5057441;28;20028;-72
2022/03/16 10:52:05;;;;;;;16.90;4.25;;;;;;;;;;5070805;28;20031;-73
2022/03/16 10:54:32;;;;;;;11.70;4.13;;;;;;;;;;5071008;28;20024;-73
2022/03/16 10:57:01;;;;;;;9.70;4.20;;;;;;;;;;5071797;28;20400;-73
2022/03/16 10:59:29;;;;;;;9.82;3.60;;;;;;;;;;5068821;28;20027;-72
2022/03/16 11:02:05;;;;;;;13.82;4.38;;;;;;;;;;5071130;28;20039;-73
2022/03/16 11:04:35;;;;;;;7.90;3.85;;;;;;;;;;5070261;28;20013;-73
2022/03/16 11:07:02;;;;;;;11.07;3.83;;;;;;;;;;5068989;28;20036;-72
2022/03/16 11:09:29;;;;;;;11.70;4.20;;;;;;;;;;5070949;28;20027;-71
2022/03/16 11:14:41;;;;;;;14.93;4.05;;;;;;;;;;5070238;28;20029;-72
2022/03/16 11:17:10;;;;;;;15.13;4.20;;;;;;;;;;5070966;28;20090;-72
2022/03/16 11:19:37;;;;;;;15.32;4.28;;;;;;;;;;5070822;28;20032;-72
2022/03/16 11:22:05;;;;;;;14.23;4.13;;;;;;;;;;5070201;28;20073;-72
2022/03/16 11:24:35;;;;;;;10.55;3.55;;;;;;;;;;5055304;28;20031;-73
2022/03/16 11:27:10;;;;;;;7.50;3.47;;;;;;;;;;5067842;28;20030;-72
2022/03/16 11:29:50;;;;;;;11.73;3.92;;;;;;;;;;5070241;28;20412;-72
2022/03/16 11:32:17;;;;;;;19.30;4.22;;;;;;;;;;5070547;28;20047;-72
2022/03/16 11:34:56;;;;;;;16.83;3.80;;;;;;;;;;5070488;28;20021;-73
2022/03/16 11:37:34;;;;;;;15.77;4.13;;;;;;;;;;5070134;28;20044;-73
2022/03/16 11:40:27;;;;;;;13.88;4.18;;;;;;;;;;5079815;28;20028;-73
2022/03/16 11:43:04;;;;;;;12.05;4.00;;;;;;;;;;5037587;28;20520;-73
2022/03/16 11:45:44;;;;;;;13.05;4.10;;;;;;;;;;5054924;28;20374;-73
2022/03/16 11:48:31;;;;;;;10.57;4.20;;;;;;;;;;5067924;28;20028;-73
2022/03/16 11:51:16;;;;;;;9.80;3.72;;;;;;;;;;5071055;28;20033;-72
2022/03/16 11:53:57;;;;;;;16.02;4.38;;;;;;;;;;5055792;28;20527;-73
2022/03/16 11:56:29;;;;;;;11.80;3.60;;;;;;;;;;5069932;28;20028;-72
2022/03/16 11:58:55;;;;;;;;;;;;;;;;;;5056361;28;20496;-73
2022/03/16 12:01:28;;;;;;;11.38;3.97;;;;;;;;;;5070336;28;20384;-73
2022/03/16 12:04:15;;;;;;;13.38;4.18;;;;;;;;;;5052383;28;20400;-72
2022/03/16 12:07:03;;;;;;;12.65;4.03;;;;;;;;;;5055789;28;20023;-73
2022/03/16 12:09:45;;;;;;;15.52;4.10;;;;;;;;;;5070545;28;20025;-74
2022/03/16 12:15:19;;;;;;;13.50;3.80;;;;;;;;;;5068342;28;20035;-73
2022/03/16 12:17:52;;;;;;;14.48;4.03;;;;;;;;;;5069293;28;20035;-73
2022/03/16 12:20:21;;;;;;;16.20;3.75;;;;;;;;;;5070602;28;20029;-73
2022/03/16 12:22:50;;;;;;;11.82;3.80;;;;;;;;;;5070385;28;20050;-72
2022/03/16 12:25:26;;;;;;;11.93;4.07;;;;;;;;;;5070260;28;20009;-73
2022/03/16 12:30:41;;;;;;;13.80;3.72;;;;;;;;;;5055033;28;20032;-74
2022/03/16 12:33:11;;;;;;;14.33;4.83;;;;;;;;;;5072782;28;20032;-73
2022/03/16 12:35:38;;;;;;;14.57;3.92;;;;;;;;;;5060932;28;20040;-73
2022/03/16 12:38:09;;;;;;;16.20;4.55;;;;;;;;;;5073674;28;20048;-73
2022/03/16 12:43:28;;;;;;;13.57;4.32;;;;;;;;;;5064324;28;20121;-74
2022/03/16 12:45:59;;;;;;;15.95;3.97;;;;;;;;;;5073475;28;20028;-73
2022/03/16 12:48:26;;;;;;;12.02;4.13;;;;;;;;;;5073987;28;20040;-73
2022/03/16 12:50:53;;;;;;;18.98;4.63;;;;;;;;;;5074223;28;20043;-73
2022/03/16 12:53:40;;;;;;;14.32;4.13;;;;;;;;;;5073636;28;20396;-72
2022/03/16 12:56:11;;;;;;;11.00;4.53;;;;;;;;;;5060064;28;20024;-72
2022/03/16 12:58:38;;;;;;;17.23;4.82;;;;;;;;;;5073479;28;20032;-74
2022/03/16 13:01:04;;;;;;;16.52;4.72;;;;;;;;;;5056061;28;20025;-73
2022/03/16 13:03:31;;;;;;;16.13;4.55;;;;;;;;;;5057347;28;20386;-73
2022/03/16 13:05:57;;;;;;;21.42;4.63;;;;;;;;;;5088070;28;20046;-73
2022/03/16 13:08:25;;;;;;;15.85;4.45;;;;;;;;;;5073886;28;20069;-74
2022/03/16 13:11:16;;;;;;;12.65;4.65;;;;;;;;;;5059099;28;20051;-73
2022/03/16 13:13:46;;;;;;;16.90;4.45;;;;;;;;;;5072993;28;20539;-74
2022/03/16 13:16:34;;;;;;;19.15;4.65;;;;;;;;;;5071536;28;20033;-73
2022/03/16 13:19:02;;;;;;;13.10;4.15;;;;;;;;;;5072422;28;20020;-73
2022/03/16 13:21:28;;;;;;;19.65;4.43;;;;;;;;;;5073040;28;20031;-73
2022/03/16 13:24:01;;;;;;;16.92;4.57;;;;;;;;;;5073259;28;20023;-73
2022/03/16 13:26:28;;;;;;;19.75;4.80;;;;;;;;;;5072821;28;20035;-73
2022/03/16 13:28:58;;;;;;;15.98;4.63;;;;;;;;;;5072948;28;20021;-74
2022/03/16 13:31:26;;;;;;;16.47;5.20;;;;;;;;;;5072696;28;20504;-73
2022/03/16 13:33:53;;;;;;;12.73;4.50;;;;;;;;;;5072869;28;20035;-72
2022/03/16 13:36:31;;;;;;;18.67;4.82;;;;;;;;;;5072873;28;20047;-73
2022/03/16 13:38:58;;;;;;;17.10;4.35;;;;;;;;;;5087361;28;20055;-73
2022/03/16 13:41:24;;;;;;;15.27;4.65;;;;;;;;;;5073171;28;20028;-74
2022/03/16 13:44:11;;;;;;;21.48;5.00;;;;;;;;;;5070657;28;20024;-74
2022/03/16 13:46:38;;;;;;;18.77;4.50;;;;;;;;;;5068854;28;20511;-73
2022/03/16 13:49:08;;;;;;;15.85;5.38;;;;;;;;;;5054500;28;20021;-73
2022/03/16 13:51:35;;;;;;;13.13;4.40;;;;;;;;;;5067903;28;20052;-74
2022/03/16 13:54:05;;;;;;;16.92;4.70;;;;;;;;;;5071853;28;20037;-74
2022/03/16 13:56:37;;;;;;;16.35;4.82;;;;;;;;;;5059088;28;20431;-73
2022/03/16 13:59:11;;;;;;;14.55;4.03;;;;;;;;;;5072309;28;20059;-73
2022/03/16 14:01:37;;;;;;;13.30;4.47;;;;;;;;;;5057898;28;20024;-73
2022/03/16 14:04:04;;;;;;;16.15;4.60;;;;;;;;;;5071316;28;20477;-73
2022/03/16 14:06:37;;;;;;;17.83;4.68;;;;;;;;;;5055735;28;20043;-73
2022/03/16 14:09:11;;;;;;;19.05;5.22;;;;;;;;;;5068496;28;20021;-74
2022/03/16 14:11:38;;;;;;;12.70;4.95;;;;;;;;;;5071458;28;20033;-74
2022/03/16 14:14:11;;;;;;;17.85;4.63;;;;;;;;;;5071460;28;20028;-74
2022/03/16 14:16:40;;;;;;;11.27;4.50;;;;;;;;;;5072169;28;20024;-73
2022/03/16 14:19:39;;;;;;;17.52;5.10;;;;;;;;;;5066479;28;20023;-73
2022/03/16 14:22:05;;;;;;;15.77;4.72;;;;;;;;;;5005881;28;20038;-74
2022/03/16 14:24:35;;;;;;;14.43;4.53;;;;;;;;;;4975149;28;20049;-74
2022/03/16 14:27:22;;;;;;;23.20;5.05;;;;;;;;;;5003137;28;20025;-74
2022/03/16 14:29:49;;;;;;;14.63;5.03;;;;;;;;;;4979166;28;20026;-74
2022/03/16 14:32:15;;;;;;;19.42;4.75;;;;;;;;;;4994754;28;20046;-74
2022/03/16 14:34:43;;;;;;;18.73;4.78;;;;;;;;;;4995229;28;20025;-74
2022/03/16 14:37:10;;;;;;;14.45;4.55;;;;;;;;;;4994540;28;20045;-74
2022/03/16 14:39:38;;;;;;;14.55;4.55;;;;;;;;;;4990872;28;20041;-73
2022/03/16 14:42:04;;;;;;;17.73;4.82;;;;;;;;;;4994507;28;20443;-74
2022/03/16 14:44:30;;;;;;;12.30;4.57;;;;;;;;;;4994861;28;20036;-73
2022/03/16 14:46:57;;;;;;;10.45;3.95;;;;;;;;;;4994451;28;20034;-74
2022/03/16 14:49:23;;;;;;;22.63;4.55;;;;;;;;;;4994634;28;20527;-74
2022/03/16 14:51:50;;;;;;;16.35;4.85;;;;;;;;;;4992424;28;20049;-74
2022/03/16 14:54:16;;;;;;;21.60;4.65;;;;;;;;;;4995216;28;20040;-74
2022/03/16 14:56:43;;;;;;;17.02;4.00;;;;;;;;;;5000438;28;20110;-73
2022/03/16 14:59:09;;;;;;;17.38;4.47;;;;;;;;;;5069176;28;20020;-73